sensor_id;sensor_type;location;lat;lon;timestamp;noise_LAeq;noise_LA_min;noise_LA_max;noise_LA01;noise_LA95
66449;Laerm;56828;52.294;4.666;2023-02-01T00:00:09;38.35;32.74;46.18;;
66449;Laerm;56828;52.294;4.666;2023-02-01T00:00:25;37.45;35.03;48.12;;
66449;Laerm;56828;52.294;4.666;2023-02-01T00:00:38;37.46;33.56;44.40;;
66449;Laerm;56828;52.294;4.666;2023-02-01T00:00:51;42.30;33.84;61.10;;
66449;Laerm;56828;52.294;4.666;2023-02-01T00:01:10;36.25;32.96;45.48;;
66449;Laerm;56828;52.294;4.666;2023-02-01T00:01:20;35.90;33.02;39.43;;
66449;Laerm;56828;52.294;4.666;2023-02-01T00:01:42;36.07;33.18;43.07;;
66449;Laerm;56828;52.294;4.666;2023-02-01T00:02:10;36.68;32.85;46.62;;
66449;Laerm;56828;52.294;4.666;2023-02-01T00:02:20;33.72;31.88;36.61;;
66449;Laerm;56828;52.294;4.666;2023-02-01T00:02:31;33.23;31.40;36.87;;
66449;Laerm;56828;52.294;4.666;2023-02-01T00:02:41;34.20;31.77;37.09;;
66449;Laerm;56828;52.294;4.666;2023-02-01T00:02:52;35.62;33.75;41.52;;
66449;Laerm;56828;52.294;4.666;2023-02-01T00:03:08;36.20;33.49;49.29;;
66449;Laerm;56828;52.294;4.666;2023-02-01T00:03:19;33.72;31.99;35.95;;
66449;Laerm;56828;52.294;4.666;2023-02-01T00:03:29;33.73;31.48;35.76;;
66449;Laerm;56828;52.294;4.666;2023-02-01T00:03:40;33.42;31.22;35.36;;
66449;Laerm;56828;52.294;4.666;2023-02-01T00:03:51;33.21;31.36;34.66;;
66449;Laerm;56828;52.294;4.666;2023-02-01T00:04:01;32.86;31.12;37.58;;
66449;Laerm;56828;52.294;4.666;2023-02-01T00:04:12;34.32;31.85;36.67;;
66449;Laerm;56828;52.294;4.666;2023-02-01T00:04:25;35.16;31.23;51.15;;
66449;Laerm;56828;52.294;4.666;2023-02-01T00:04:35;34.22;31.78;41.12;;
66449;Laerm;56828;52.294;4.666;2023-02-01T00:04:48;34.09;31.95;37.50;;
66449;Laerm;56828;52.294;4.666;2023-02-01T00:05:01;36.82;33.30;42.36;;
66449;Laerm;56828;52.294;4.666;2023-02-01T00:05:12;38.47;34.61;52.42;;
66449;Laerm;56828;52.294;4.666;2023-02-01T00:05:22;41.10;37.27;44.94;;
66449;Laerm;56828;52.294;4.666;2023-02-01T00:05:35;39.89;35.69;42.69;;
66449;Laerm;56828;52.294;4.666;2023-02-01T00:05:54;42.39;34.05;59.02;;
66449;Laerm;56828;52.294;4.666;2023-02-01T00:06:05;38.06;32.50;53.56;;
66449;Laerm;56828;52.294;4.666;2023-02-01T00:06:15;34.34;32.02;43.54;;
66449;Laerm;56828;52.294;4.666;2023-02-01T00:06:28;36.73;34.05;39.94;;
66449;Laerm;56828;52.294;4.666;2023-02-01T00:06:41;34.93;33.26;37.27;;
66449;Laerm;56828;52.294;4.666;2023-02-01T00:06:52;36.83;33.89;39.36;;
66449;Laerm;56828;52.294;4.666;2023-02-01T00:07:05;36.92;33.15;40.78;;
66449;Laerm;56828;52.294;4.666;2023-02-01T00:07:16;33.82;31.91;36.39;;
66449;Laerm;56828;52.294;4.666;2023-02-01T00:07:29;34.96;31.94;38.95;;
66449;Laerm;56828;52.294;4.666;2023-02-01T00:07:40;34.51;32.14;38.52;;
66449;Laerm;56828;52.294;4.666;2023-02-01T00:07:51;34.65;32.14;37.31;;
66449;Laerm;56828;52.294;4.666;2023-02-01T00:08:01;34.13;31.42;38.88;;
66449;Laerm;56828;52.294;4.666;2023-02-01T00:08:11;33.77;31.76;37.04;;
66449;Laerm;56828;52.294;4.666;2023-02-01T00:08:22;33.03;31.60;34.50;;
66449;Laerm;56828;52.294;4.666;2023-02-01T00:08:32;35.80;32.48;41.90;;
66449;Laerm;56828;52.294;4.666;2023-02-01T00:08:43;37.88;31.31;51.40;;
66449;Laerm;56828;52.294;4.666;2023-02-01T00:08:54;34.26;31.32;36.86;;
66449;Laerm;56828;52.294;4.666;2023-02-01T00:09:08;33.52;31.35;36.93;;
66449;Laerm;56828;52.294;4.666;2023-02-01T00:09:19;42.60;36.38;57.27;;
66449;Laerm;56828;52.294;4.666;2023-02-01T00:09:29;42.97;40.36;47.24;;
66449;Laerm;56828;52.294;4.666;2023-02-01T00:09:43;38.70;33.60;45.91;;
66449;Laerm;56828;52.294;4.666;2023-02-01T00:09:55;35.64;32.19;37.72;;
66449;Laerm;56828;52.294;4.666;2023-02-01T00:10:06;36.57;32.49;41.36;;
66449;Laerm;56828;52.294;4.666;2023-02-01T00:10:17;38.67;35.29;40.92;;
66449;Laerm;56828;52.294;4.666;2023-02-01T00:10:32;41.78;36.61;58.11;;
66449;Laerm;56828;52.294;4.666;2023-02-01T00:10:45;36.11;32.35;45.17;;
66449;Laerm;56828;52.294;4.666;2023-02-01T00:11:07;34.55;30.83;43.49;;
66449;Laerm;56828;52.294;4.666;2023-02-01T00:11:18;36.95;34.92;38.74;;
66449;Laerm;56828;52.294;4.666;2023-02-01T00:11:28;37.04;32.95;42.93;;
66449;Laerm;56828;52.294;4.666;2023-02-01T00:11:44;41.39;36.51;45.65;;
66449;Laerm;56828;52.294;4.666;2023-02-01T00:11:58;38.00;34.68;41.17;;
66449;Laerm;56828;52.294;4.666;2023-02-01T00:12:15;34.91;31.12;39.01;;
66449;Laerm;56828;52.294;4.666;2023-02-01T00:12:34;34.62;30.38;40.03;;
66449;Laerm;56828;52.294;4.666;2023-02-01T00:12:44;34.57;32.37;38.51;;
66449;Laerm;56828;52.294;4.666;2023-02-01T00:12:55;34.61;32.32;41.45;;
66449;Laerm;56828;52.294;4.666;2023-02-01T00:13:13;34.79;31.75;44.61;;
66449;Laerm;56828;52.294;4.666;2023-02-01T00:13:35;34.34;31.65;39.36;;
66449;Laerm;56828;52.294;4.666;2023-02-01T00:13:48;38.65;35.90;43.29;;
66449;Laerm;56828;52.294;4.666;2023-02-01T00:13:58;42.06;34.38;55.79;;
66449;Laerm;56828;52.294;4.666;2023-02-01T00:14:09;35.77;32.83;46.20;;
66449;Laerm;56828;52.294;4.666;2023-02-01T00:14:35;34.54;31.58;44.90;;
66449;Laerm;56828;52.294;4.666;2023-02-01T00:14:48;37.97;31.71;44.18;;
66449;Laerm;56828;52.294;4.666;2023-02-01T00:15:01;47.26;38.73;59.30;;
66449;Laerm;56828;52.294;4.666;2023-02-01T00:15:14;43.97;35.39;60.35;;
66449;Laerm;56828;52.294;4.666;2023-02-01T00:15:25;37.91;33.90;54.19;;
66449;Laerm;56828;52.294;4.666;2023-02-01T00:15:38;44.04;32.48;55.99;;
66449;Laerm;56828;52.294;4.666;2023-02-01T00:15:48;34.27;31.75;47.54;;
66449;Laerm;56828;52.294;4.666;2023-02-01T00:16:21;33.11;30.87;35.04;;
66449;Laerm;56828;52.294;4.666;2023-02-01T00:16:29;33.39;31.10;38.97;;
66449;Laerm;56828;52.294;4.666;2023-02-01T00:16:42;34.55;31.80;43.76;;
66449;Laerm;56828;52.294;4.666;2023-02-01T00:17:01;33.45;30.63;47.35;;
66449;Laerm;56828;52.294;4.666;2023-02-01T00:17:25;33.48;30.87;40.24;;
66449;Laerm;56828;52.294;4.666;2023-02-01T00:17:38;32.29;30.79;35.71;;
66449;Laerm;56828;52.294;4.666;2023-02-01T00:17:56;34.78;32.30;40.72;;
66449;Laerm;56828;52.294;4.666;2023-02-01T00:18:06;37.97;32.72;45.05;;
66449;Laerm;56828;52.294;4.666;2023-02-01T00:18:16;37.11;32.44;45.63;;
66449;Laerm;56828;52.294;4.666;2023-02-01T00:18:26;38.66;31.79;45.31;;
66449;Laerm;56828;52.294;4.666;2023-02-01T00:18:42;38.70;32.90;45.60;;
66449;Laerm;56828;52.294;4.666;2023-02-01T00:19:01;37.70;32.71;48.09;;
66449;Laerm;56828;52.294;4.666;2023-02-01T00:19:12;41.57;36.45;55.11;;
66449;Laerm;56828;52.294;4.666;2023-02-01T00:19:36;36.87;33.39;41.26;;
66449;Laerm;56828;52.294;4.666;2023-02-01T00:19:46;36.51;32.80;42.10;;
66449;Laerm;56828;52.294;4.666;2023-02-01T00:20:03;36.31;32.23;45.10;;
66449;Laerm;56828;52.294;4.666;2023-02-01T00:20:13;36.68;32.67;43.48;;
66449;Laerm;56828;52.294;4.666;2023-02-01T00:20:23;43.00;37.59;47.83;;
66449;Laerm;56828;52.294;4.666;2023-02-01T00:20:39;37.33;34.54;42.25;;
66449;Laerm;56828;52.294;4.666;2023-02-01T00:20:55;41.11;35.09;48.13;;
66449;Laerm;56828;52.294;4.666;2023-02-01T00:21:14;35.96;33.41;42.05;;
66449;Laerm;56828;52.294;4.666;2023-02-01T00:21:37;34.66;32.79;37.48;;
66449;Laerm;56828;52.294;4.666;2023-02-01T00:21:47;41.09;33.82;58.26;;
66449;Laerm;56828;52.294;4.666;2023-02-01T00:21:58;43.50;36.73;49.54;;
66449;Laerm;56828;52.294;4.666;2023-02-01T00:22:08;38.74;33.97;49.13;;
66449;Laerm;56828;52.294;4.666;2023-02-01T00:22:18;36.09;33.13;44.14;;
66449;Laerm;56828;52.294;4.666;2023-02-01T00:22:28;36.03;34.03;42.08;;
66449;Laerm;56828;52.294;4.666;2023-02-01T00:22:39;34.63;32.32;37.05;;
66449;Laerm;56828;52.294;4.666;2023-02-01T00:22:49;36.32;33.00;44.90;;
66449;Laerm;56828;52.294;4.666;2023-02-01T00:22:59;37.81;34.92;41.75;;
66449;Laerm;56828;52.294;4.666;2023-02-01T00:23:09;41.08;37.28;46.70;;
66449;Laerm;56828;52.294;4.666;2023-02-01T00:23:20;34.97;32.36;38.26;;
66449;Laerm;56828;52.294;4.666;2023-02-01T00:23:33;34.71;32.03;37.68;;
66449;Laerm;56828;52.294;4.666;2023-02-01T00:23:44;32.40;30.73;34.78;;
66449;Laerm;56828;52.294;4.666;2023-02-01T00:23:54;32.81;30.38;39.08;;
66449;Laerm;56828;52.294;4.666;2023-02-01T00:24:05;33.10;31.04;38.66;;
66449;Laerm;56828;52.294;4.666;2023-02-01T00:24:16;38.69;32.53;54.32;;
66449;Laerm;56828;52.294;4.666;2023-02-01T00:24:26;40.88;36.19;43.94;;
66449;Laerm;56828;52.294;4.666;2023-02-01T00:24:36;35.73;32.12;45.77;;
66449;Laerm;56828;52.294;4.666;2023-02-01T00:24:47;42.79;33.13;54.60;;
66449;Laerm;56828;52.294;4.666;2023-02-01T00:24:57;42.14;36.15;55.48;;
66449;Laerm;56828;52.294;4.666;2023-02-01T00:25:08;35.06;32.45;40.48;;
66449;Laerm;56828;52.294;4.666;2023-02-01T00:25:18;33.22;31.65;38.21;;
66449;Laerm;56828;52.294;4.666;2023-02-01T00:25:28;34.71;32.14;42.93;;
66449;Laerm;56828;52.294;4.666;2023-02-01T00:25:38;34.97;31.56;44.69;;
66449;Laerm;56828;52.294;4.666;2023-02-01T00:25:49;35.15;32.74;39.29;;
66449;Laerm;56828;52.294;4.666;2023-02-01T00:26:12;38.89;34.80;42.83;;
66449;Laerm;56828;52.294;4.666;2023-02-01T00:26:30;49.57;40.15;56.34;;
66449;Laerm;56828;52.294;4.666;2023-02-01T00:26:42;47.29;41.04;56.00;;
66449;Laerm;56828;52.294;4.666;2023-02-01T00:26:52;44.28;38.06;62.52;;
66449;Laerm;56828;52.294;4.666;2023-02-01T00:27:06;50.39;37.74;66.70;;
66449;Laerm;56828;52.294;4.666;2023-02-01T00:27:32;42.63;36.78;48.34;;
66449;Laerm;56828;52.294;4.666;2023-02-01T00:27:48;41.56;35.99;47.53;;
66449;Laerm;56828;52.294;4.666;2023-02-01T00:27:58;37.32;33.78;42.41;;
66449;Laerm;56828;52.294;4.666;2023-02-01T00:28:09;35.82;33.61;44.36;;
66449;Laerm;56828;52.294;4.666;2023-02-01T00:28:19;35.46;32.59;44.08;;
66449;Laerm;56828;52.294;4.666;2023-02-01T00:28:29;33.26;31.10;35.76;;
66449;Laerm;56828;52.294;4.666;2023-02-01T00:28:52;33.31;30.35;48.11;;
66449;Laerm;56828;52.294;4.666;2023-02-01T00:29:06;32.52;30.81;34.76;;
66449;Laerm;56828;52.294;4.666;2023-02-01T00:29:19;31.95;30.40;33.79;;
66449;Laerm;56828;52.294;4.666;2023-02-01T00:29:30;39.83;31.01;55.33;;
66449;Laerm;56828;52.294;4.666;2023-02-01T00:29:40;38.96;31.72;54.52;;
66449;Laerm;56828;52.294;4.666;2023-02-01T00:29:51;36.54;34.47;46.36;;
66449;Laerm;56828;52.294;4.666;2023-02-01T00:30:04;35.56;31.36;44.95;;
66449;Laerm;56828;52.294;4.666;2023-02-01T00:30:14;40.59;31.17;57.53;;
66449;Laerm;56828;52.294;4.666;2023-02-01T00:30:32;34.88;30.42;46.80;;
66449;Laerm;56828;52.294;4.666;2023-02-01T00:30:45;32.66;30.87;35.65;;
66449;Laerm;56828;52.294;4.666;2023-02-01T00:31:08;36.85;32.01;46.68;;
66449;Laerm;56828;52.294;4.666;2023-02-01T00:31:19;33.68;31.60;37.08;;
66449;Laerm;56828;52.294;4.666;2023-02-01T00:31:41;39.75;32.13;50.25;;
66449;Laerm;56828;52.294;4.666;2023-02-01T00:31:51;42.67;33.49;60.75;;
66449;Laerm;56828;52.294;4.666;2023-02-01T00:32:02;38.02;33.16;45.75;;
66449;Laerm;56828;52.294;4.666;2023-02-01T00:32:15;42.13;37.90;47.03;;
66449;Laerm;56828;52.294;4.666;2023-02-01T00:32:27;39.55;34.38;43.41;;
66449;Laerm;56828;52.294;4.666;2023-02-01T00:32:37;38.66;35.78;41.03;;
66449;Laerm;56828;52.294;4.666;2023-02-01T00:32:53;42.26;33.52;48.19;;
66449;Laerm;56828;52.294;4.666;2023-02-01T00:33:09;41.86;34.17;51.98;;
66449;Laerm;56828;52.294;4.666;2023-02-01T00:33:22;42.94;35.66;55.91;;
66449;Laerm;56828;52.294;4.666;2023-02-01T00:33:35;38.54;35.57;45.22;;
66449;Laerm;56828;52.294;4.666;2023-02-01T00:33:48;36.93;34.42;41.52;;
66449;Laerm;56828;52.294;4.666;2023-02-01T00:34:02;36.42;34.04;50.98;;
66449;Laerm;56828;52.294;4.666;2023-02-01T00:34:17;40.61;33.49;49.39;;
66449;Laerm;56828;52.294;4.666;2023-02-01T00:34:28;38.82;32.54;44.68;;
66449;Laerm;56828;52.294;4.666;2023-02-01T00:34:44;34.63;31.09;47.32;;
66449;Laerm;56828;52.294;4.666;2023-02-01T00:34:54;35.69;33.74;37.57;;
66449;Laerm;56828;52.294;4.666;2023-02-01T00:35:05;40.21;34.54;51.47;;
66449;Laerm;56828;52.294;4.666;2023-02-01T00:35:17;38.96;33.07;51.72;;
66449;Laerm;56828;52.294;4.666;2023-02-01T00:35:27;33.32;31.46;35.14;;
66449;Laerm;56828;52.294;4.666;2023-02-01T00:35:38;32.67;31.27;35.69;;
66449;Laerm;56828;52.294;4.666;2023-02-01T00:35:51;37.41;30.68;52.65;;
66449;Laerm;56828;52.294;4.666;2023-02-01T00:36:02;32.43;30.70;37.33;;
66449;Laerm;56828;52.294;4.666;2023-02-01T00:36:15;32.41;30.38;34.79;;
66449;Laerm;56828;52.294;4.666;2023-02-01T00:36:25;32.07;30.40;33.69;;
66449;Laerm;56828;52.294;4.666;2023-02-01T00:36:36;32.37;30.88;34.25;;
66449;Laerm;56828;52.294;4.666;2023-02-01T00:36:46;33.41;31.27;35.33;;
66449;Laerm;56828;52.294;4.666;2023-02-01T00:37:02;34.34;31.33;45.28;;
66449;Laerm;56828;52.294;4.666;2023-02-01T00:37:15;42.92;33.78;60.11;;
66449;Laerm;56828;52.294;4.666;2023-02-01T00:37:25;36.07;33.05;43.87;;
66449;Laerm;56828;52.294;4.666;2023-02-01T00:37:38;40.08;33.64;52.53;;
66449;Laerm;56828;52.294;4.666;2023-02-01T00:38:05;34.10;30.62;44.29;;
66449;Laerm;56828;52.294;4.666;2023-02-01T00:38:18;36.01;32.95;39.72;;
66449;Laerm;56828;52.294;4.666;2023-02-01T00:38:29;34.54;32.15;40.35;;
66449;Laerm;56828;52.294;4.666;2023-02-01T00:38:39;37.92;34.41;43.04;;
66449;Laerm;56828;52.294;4.666;2023-02-01T00:38:53;36.08;32.95;40.01;;
66449;Laerm;56828;52.294;4.666;2023-02-01T00:39:03;38.88;35.02;46.06;;
66449;Laerm;56828;52.294;4.666;2023-02-01T00:39:14;43.34;38.31;46.24;;
66449;Laerm;56828;52.294;4.666;2023-02-01T00:39:24;36.42;33.05;42.13;;
66449;Laerm;56828;52.294;4.666;2023-02-01T00:39:37;33.86;32.08;36.52;;
66449;Laerm;56828;52.294;4.666;2023-02-01T00:40:02;37.47;31.26;51.27;;
66449;Laerm;56828;52.294;4.666;2023-02-01T00:40:12;33.98;31.15;36.53;;
66449;Laerm;56828;52.294;4.666;2023-02-01T00:40:28;38.43;32.08;43.07;;
66449;Laerm;56828;52.294;4.666;2023-02-01T00:40:51;36.80;31.70;43.16;;
66449;Laerm;56828;52.294;4.666;2023-02-01T00:41:02;46.19;35.17;60.18;;
66449;Laerm;56828;52.294;4.666;2023-02-01T00:41:16;40.97;36.65;49.36;;
66449;Laerm;56828;52.294;4.666;2023-02-01T00:41:34;36.45;31.84;57.63;;
66449;Laerm;56828;52.294;4.666;2023-02-01T00:41:47;36.32;31.77;47.76;;
66449;Laerm;56828;52.294;4.666;2023-02-01T00:42:00;35.96;32.48;39.24;;
66449;Laerm;56828;52.294;4.666;2023-02-01T00:42:11;33.26;30.71;38.49;;
66449;Laerm;56828;52.294;4.666;2023-02-01T00:42:24;36.33;31.82;41.90;;
66449;Laerm;56828;52.294;4.666;2023-02-01T00:42:34;42.10;35.90;55.21;;
66449;Laerm;56828;52.294;4.666;2023-02-01T00:42:51;39.63;36.35;52.47;;
66449;Laerm;56828;52.294;4.666;2023-02-01T00:43:08;37.98;30.67;52.91;;
66449;Laerm;56828;52.294;4.666;2023-02-01T00:43:19;32.32;30.90;35.49;;
66449;Laerm;56828;52.294;4.666;2023-02-01T00:43:32;32.38;30.69;34.60;;
66449;Laerm;56828;52.294;4.666;2023-02-01T00:43:44;32.73;31.14;35.36;;
66449;Laerm;56828;52.294;4.666;2023-02-01T00:43:54;32.43;30.90;33.76;;
66449;Laerm;56828;52.294;4.666;2023-02-01T00:44:10;33.33;31.03;38.12;;
66449;Laerm;56828;52.294;4.666;2023-02-01T00:44:26;39.99;30.81;57.12;;
66449;Laerm;56828;52.294;4.666;2023-02-01T00:44:37;32.63;30.58;39.95;;
66449;Laerm;56828;52.294;4.666;2023-02-01T00:44:51;32.38;30.84;37.34;;
66449;Laerm;56828;52.294;4.666;2023-02-01T00:45:07;37.76;30.19;54.24;;
66449;Laerm;56828;52.294;4.666;2023-02-01T00:45:17;37.27;33.30;45.13;;
66449;Laerm;56828;52.294;4.666;2023-02-01T00:45:28;39.60;35.11;51.67;;
66449;Laerm;56828;52.294;4.666;2023-02-01T00:45:38;36.10;34.13;40.64;;
66449;Laerm;56828;52.294;4.666;2023-02-01T00:45:59;35.62;30.43;48.34;;
66449;Laerm;56828;52.294;4.666;2023-02-01T00:46:09;38.52;34.00;48.85;;
66449;Laerm;56828;52.294;4.666;2023-02-01T00:46:25;34.57;31.51;41.82;;
66449;Laerm;56828;52.294;4.666;2023-02-01T00:46:36;32.60;30.73;36.91;;
66449;Laerm;56828;52.294;4.666;2023-02-01T00:46:48;34.98;31.77;50.34;;
66449;Laerm;56828;52.294;4.666;2023-02-01T00:47:01;42.61;32.34;53.83;;
66449;Laerm;56828;52.294;4.666;2023-02-01T00:47:16;45.52;32.16;67.96;;
66449;Laerm;56828;52.294;4.666;2023-02-01T00:47:42;32.96;30.97;39.94;;
66449;Laerm;56828;52.294;4.666;2023-02-01T00:48:06;38.54;32.14;44.66;;
66449;Laerm;56828;52.294;4.666;2023-02-01T00:48:17;34.09;32.55;37.24;;
66449;Laerm;56828;52.294;4.666;2023-02-01T00:48:27;33.94;30.90;45.20;;
66449;Laerm;56828;52.294;4.666;2023-02-01T00:48:40;33.24;30.56;36.32;;
66449;Laerm;56828;52.294;4.666;2023-02-01T00:48:51;31.73;29.82;33.16;;
66449;Laerm;56828;52.294;4.666;2023-02-01T00:49:01;31.82;30.60;33.44;;
66449;Laerm;56828;52.294;4.666;2023-02-01T00:49:11;32.38;30.43;34.53;;
66449;Laerm;56828;52.294;4.666;2023-02-01T00:49:22;32.14;30.41;33.76;;
66449;Laerm;56828;52.294;4.666;2023-02-01T00:49:37;32.61;30.50;43.12;;
66449;Laerm;56828;52.294;4.666;2023-02-01T00:49:47;33.16;30.82;35.75;;
66449;Laerm;56828;52.294;4.666;2023-02-01T00:50:07;33.27;30.82;36.62;;
66449;Laerm;56828;52.294;4.666;2023-02-01T00:50:18;39.96;33.62;54.71;;
66449;Laerm;56828;52.294;4.666;2023-02-01T00:50:28;42.52;38.88;44.89;;
66449;Laerm;56828;52.294;4.666;2023-02-01T00:50:41;42.43;38.12;47.48;;
66449;Laerm;56828;52.294;4.666;2023-02-01T00:51:02;41.85;37.11;46.72;;
66449;Laerm;56828;52.294;4.666;2023-02-01T00:51:17;42.27;36.56;52.98;;
66449;Laerm;56828;52.294;4.666;2023-02-01T00:51:28;36.75;32.51;40.73;;
66449;Laerm;56828;52.294;4.666;2023-02-01T00:51:39;33.83;30.59;35.99;;
66449;Laerm;56828;52.294;4.666;2023-02-01T00:51:58;39.57;30.60;57.71;;
66449;Laerm;56828;52.294;4.666;2023-02-01T00:52:11;35.04;31.66;38.72;;
66449;Laerm;56828;52.294;4.666;2023-02-01T00:52:21;36.57;31.64;47.04;;
66449;Laerm;56828;52.294;4.666;2023-02-01T00:52:31;40.52;33.34;51.38;;
66449;Laerm;56828;52.294;4.666;2023-02-01T00:52:48;34.29;31.25;39.91;;
66449;Laerm;56828;52.294;4.666;2023-02-01T00:52:58;33.23;30.58;43.49;;
66449;Laerm;56828;52.294;4.666;2023-02-01T00:53:10;32.89;30.90;34.60;;
66449;Laerm;56828;52.294;4.666;2023-02-01T00:53:20;34.24;32.05;43.01;;
66449;Laerm;56828;52.294;4.666;2023-02-01T00:53:31;35.00;31.75;44.00;;
66449;Laerm;56828;52.294;4.666;2023-02-01T00:53:44;34.43;31.77;41.69;;
66449;Laerm;56828;52.294;4.666;2023-02-01T00:53:55;49.43;35.33;63.29;;
66449;Laerm;56828;52.294;4.666;2023-02-01T00:54:29;36.67;30.72;47.91;;
66449;Laerm;56828;52.294;4.666;2023-02-01T00:54:44;32.94;30.75;40.29;;
66449;Laerm;56828;52.294;4.666;2023-02-01T00:54:55;36.10;31.12;50.73;;
66449;Laerm;56828;52.294;4.666;2023-02-01T00:55:05;35.78;31.04;46.47;;
66449;Laerm;56828;52.294;4.666;2023-02-01T00:55:15;32.87;30.83;35.19;;
66449;Laerm;56828;52.294;4.666;2023-02-01T00:55:28;32.88;31.24;34.45;;
66449;Laerm;56828;52.294;4.666;2023-02-01T00:55:39;32.88;31.42;36.88;;
66449;Laerm;56828;52.294;4.666;2023-02-01T00:55:54;32.89;30.85;35.99;;
66449;Laerm;56828;52.294;4.666;2023-02-01T00:56:06;32.01;30.65;34.19;;
66449;Laerm;56828;52.294;4.666;2023-02-01T00:56:16;32.08;30.41;33.92;;
66449;Laerm;56828;52.294;4.666;2023-02-01T00:56:27;33.36;31.58;35.22;;
66449;Laerm;56828;52.294;4.666;2023-02-01T00:56:40;34.05;32.01;37.77;;
66449;Laerm;56828;52.294;4.666;2023-02-01T00:56:53;34.13;32.01;41.14;;
66449;Laerm;56828;52.294;4.666;2023-02-01T00:57:09;34.08;31.64;45.34;;
66449;Laerm;56828;52.294;4.666;2023-02-01T00:57:30;36.44;30.98;42.35;;
66449;Laerm;56828;52.294;4.666;2023-02-01T00:57:40;33.42;31.31;35.88;;
66449;Laerm;56828;52.294;4.666;2023-02-01T00:57:51;31.79;30.17;33.55;;
66449;Laerm;56828;52.294;4.666;2023-02-01T00:58:01;31.44;29.90;32.88;;
66449;Laerm;56828;52.294;4.666;2023-02-01T00:58:25;35.97;29.92;52.31;;
66449;Laerm;56828;52.294;4.666;2023-02-01T00:58:36;33.90;30.11;39.90;;
66449;Laerm;56828;52.294;4.666;2023-02-01T00:58:46;32.46;30.70;34.06;;
66449;Laerm;56828;52.294;4.666;2023-02-01T00:58:56;39.15;31.85;56.84;;
66449;Laerm;56828;52.294;4.666;2023-02-01T00:59:07;38.53;32.16;52.56;;
66449;Laerm;56828;52.294;4.666;2023-02-01T00:59:20;40.35;33.05;56.29;;
66449;Laerm;56828;52.294;4.666;2023-02-01T00:59:33;35.55;31.31;45.47;;
66449;Laerm;56828;52.294;4.666;2023-02-01T00:59:51;32.88;30.91;40.41;;
66449;Laerm;56828;52.294;4.666;2023-02-01T01:00:01;33.48;31.09;36.58;;
66449;Laerm;56828;52.294;4.666;2023-02-01T01:00:12;36.37;32.62;39.31;;
66449;Laerm;56828;52.294;4.666;2023-02-01T01:00:22;33.00;30.82;38.34;;
66449;Laerm;56828;52.294;4.666;2023-02-01T01:00:33;31.88;29.99;33.81;;
66449;Laerm;56828;52.294;4.666;2023-02-01T01:00:43;33.11;30.40;45.08;;
66449;Laerm;56828;52.294;4.666;2023-02-01T01:01:03;35.90;31.22;46.53;;
66449;Laerm;56828;52.294;4.666;2023-02-01T01:01:27;32.32;30.74;34.53;;
66449;Laerm;56828;52.294;4.666;2023-02-01T01:01:37;40.10;30.81;50.82;;
66449;Laerm;56828;52.294;4.666;2023-02-01T01:01:48;32.89;31.06;35.01;;
66449;Laerm;56828;52.294;4.666;2023-02-01T01:01:58;38.55;32.59;46.04;;
66449;Laerm;56828;52.294;4.666;2023-02-01T01:02:10;35.23;32.69;39.79;;
66449;Laerm;56828;52.294;4.666;2023-02-01T01:02:25;33.62;30.85;35.64;;
66449;Laerm;56828;52.294;4.666;2023-02-01T01:02:35;33.73;31.34;36.39;;
66449;Laerm;56828;52.294;4.666;2023-02-01T01:02:46;34.16;31.68;40.07;;
66449;Laerm;56828;52.294;4.666;2023-02-01T01:03:05;34.54;32.58;36.78;;
66449;Laerm;56828;52.294;4.666;2023-02-01T01:03:27;41.70;32.68;51.08;;
66449;Laerm;56828;52.294;4.666;2023-02-01T01:03:43;41.90;39.24;45.14;;
66449;Laerm;56828;52.294;4.666;2023-02-01T01:03:57;45.13;40.12;50.96;;
66449;Laerm;56828;52.294;4.666;2023-02-01T01:04:07;48.91;42.68;55.26;;
66449;Laerm;56828;52.294;4.666;2023-02-01T01:04:35;46.14;34.43;54.26;;
66449;Laerm;56828;52.294;4.666;2023-02-01T01:04:45;33.77;31.67;36.61;;
66449;Laerm;56828;52.294;4.666;2023-02-01T01:05:11;36.53;31.62;48.39;;
66449;Laerm;56828;52.294;4.666;2023-02-01T01:05:21;42.29;36.48;50.01;;
66449;Laerm;56828;52.294;4.666;2023-02-01T01:05:34;40.75;36.35;52.83;;
66449;Laerm;56828;52.294;4.666;2023-02-01T01:05:45;42.88;35.82;53.96;;
66449;Laerm;56828;52.294;4.666;2023-02-01T01:05:59;44.02;35.56;56.29;;
66449;Laerm;56828;52.294;4.666;2023-02-01T01:06:14;37.33;33.80;49.40;;
66449;Laerm;56828;52.294;4.666;2023-02-01T01:06:28;33.72;31.38;37.81;;
66449;Laerm;56828;52.294;4.666;2023-02-01T01:06:39;33.59;31.51;35.91;;
66449;Laerm;56828;52.294;4.666;2023-02-01T01:06:49;34.96;31.80;44.13;;
66449;Laerm;56828;52.294;4.666;2023-02-01T01:07:01;38.08;33.02;50.00;;
66449;Laerm;56828;52.294;4.666;2023-02-01T01:07:11;37.05;32.04;48.45;;
66449;Laerm;56828;52.294;4.666;2023-02-01T01:07:21;34.89;32.48;39.80;;
66449;Laerm;56828;52.294;4.666;2023-02-01T01:07:34;35.64;32.04;48.09;;
66449;Laerm;56828;52.294;4.666;2023-02-01T01:07:44;34.80;32.83;38.17;;
66449;Laerm;56828;52.294;4.666;2023-02-01T01:07:55;33.98;32.36;36.14;;
66449;Laerm;56828;52.294;4.666;2023-02-01T01:08:05;33.46;31.64;35.03;;
66449;Laerm;56828;52.294;4.666;2023-02-01T01:08:16;34.37;32.05;38.94;;
66449;Laerm;56828;52.294;4.666;2023-02-01T01:08:26;34.28;31.30;41.79;;
66449;Laerm;56828;52.294;4.666;2023-02-01T01:08:37;35.64;32.93;37.77;;
66449;Laerm;56828;52.294;4.666;2023-02-01T01:08:48;34.41;31.05;40.11;;
66449;Laerm;56828;52.294;4.666;2023-02-01T01:09:03;32.01;30.28;33.95;;
66449;Laerm;56828;52.294;4.666;2023-02-01T01:09:16;32.88;30.68;37.55;;
66449;Laerm;56828;52.294;4.666;2023-02-01T01:09:26;32.36;30.68;35.32;;
66449;Laerm;56828;52.294;4.666;2023-02-01T01:09:37;35.32;31.85;39.97;;
66449;Laerm;56828;52.294;4.666;2023-02-01T01:09:47;40.59;33.87;52.04;;
66449;Laerm;56828;52.294;4.666;2023-02-01T01:09:57;48.83;36.62;62.29;;
66449;Laerm;56828;52.294;4.666;2023-02-01T01:10:08;38.27;34.90;45.91;;
66449;Laerm;56828;52.294;4.666;2023-02-01T01:10:18;37.95;35.35;42.66;;
66449;Laerm;56828;52.294;4.666;2023-02-01T01:10:28;35.27;32.65;37.96;;
66449;Laerm;56828;52.294;4.666;2023-02-01T01:10:42;34.16;32.23;37.00;;
66449;Laerm;56828;52.294;4.666;2023-02-01T01:10:53;32.91;31.24;34.75;;
66449;Laerm;56828;52.294;4.666;2023-02-01T01:11:09;33.05;31.25;35.26;;
66449;Laerm;56828;52.294;4.666;2023-02-01T01:11:22;35.93;31.43;46.97;;
66449;Laerm;56828;52.294;4.666;2023-02-01T01:11:35;33.55;31.24;40.63;;
66449;Laerm;56828;52.294;4.666;2023-02-01T01:11:46;36.53;32.12;52.20;;
66449;Laerm;56828;52.294;4.666;2023-02-01T01:12:14;48.86;31.76;69.77;;
66449;Laerm;56828;52.294;4.666;2023-02-01T01:12:24;41.98;32.82;55.74;;
66449;Laerm;56828;52.294;4.666;2023-02-01T01:12:38;38.50;33.34;50.37;;
66449;Laerm;56828;52.294;4.666;2023-02-01T01:12:48;36.65;33.60;39.66;;
66449;Laerm;56828;52.294;4.666;2023-02-01T01:12:58;33.75;31.28;43.25;;
66449;Laerm;56828;52.294;4.666;2023-02-01T01:13:09;35.10;31.32;48.26;;
66449;Laerm;56828;52.294;4.666;2023-02-01T01:13:32;33.08;31.00;40.24;;
66449;Laerm;56828;52.294;4.666;2023-02-01T01:13:46;32.42;30.29;35.27;;
66449;Laerm;56828;52.294;4.666;2023-02-01T01:13:57;34.88;31.11;45.29;;
66449;Laerm;56828;52.294;4.666;2023-02-01T01:14:08;35.35;33.16;37.36;;